LFJL 301030Z AUTO 07013KT 030V110 CAVOK 21/05 Q1021 TEMPO 08015G25KT

ElémentsDécodage
LFJL Station météo située sur l'aérodrome de METZ Nancy-Lorraine
301030Z émis le 30 du mois à 10h30 UTC
AUTO Bulletin édité par un automate
07013KT vent du 070°, 13 noeuds
030V110 vent de direction variable entre 030° et 110°
CAVOK Ceiling And Visibility OK
- Visibilité de 10 Km ou plus
- Pas de nuage au-dessous de 1500m ou au-dessous de l'altitude minimale du secteur la plus élevée (si>1500m) et absence de CB
- pas de temps présent significatif
21/05 température 21°C, point de rosée 05°C
 soit une humidité relative de 35%
Q1021 la pression au niveau de la mer (QNH) est de 1021 hPa
TEMPO fluctuation temporaire prévue
08015G25KT vent du 080°, moyenne: 15 noeuds, avec rafales à 25 noeuds